createdAt,value
2023-02-11T00:00:33.781Z,98.79
2023-02-11T00:01:33.896Z,98.58
2023-02-11T00:02:33.826Z,98.43
2023-02-11T00:03:33.827Z,98.32
2023-02-11T00:04:33.732Z,98.22
2023-02-11T00:05:33.711Z,98.32
2023-02-11T00:06:33.727Z,98.47
2023-02-11T00:07:33.701Z,98.63
2023-02-11T00:08:33.690Z,98.43
2023-02-11T00:09:33.670Z,98.11
2023-02-11T00:10:33.652Z,97.80
2023-02-11T00:11:33.680Z,98.01
2023-02-11T00:12:33.626Z,97.91
2023-02-11T00:13:33.616Z,97.86
2023-02-11T00:14:33.607Z,97.55
2023-02-11T00:15:33.598Z,97.09
2023-02-11T00:16:33.700Z,96.67
2023-02-11T00:17:33.580Z,96.15
2023-02-11T00:18:33.567Z,96.15
2023-02-11T00:19:33.572Z,95.94
2023-02-11T00:20:33.530Z,95.94
2023-02-11T00:21:33.554Z,96.36
2023-02-11T00:22:33.503Z,96.46
2023-02-11T00:23:33.492Z,96.46
2023-02-11T00:24:33.480Z,96.56
2023-02-11T00:25:33.470Z,96.36
2023-02-11T00:26:33.533Z,96.36
2023-02-11T00:27:33.514Z,96.25
2023-02-11T00:28:33.480Z,96.25
2023-02-11T00:29:33.416Z,96.04
2023-02-11T00:30:33.508Z,96.04
2023-02-11T00:31:33.537Z,96.04
2023-02-11T00:32:33.408Z,96.36
2023-02-11T00:33:33.391Z,96.46
2023-02-11T00:34:33.389Z,96.36
2023-02-11T00:35:33.357Z,96.40
2023-02-11T00:36:33.349Z,96.46
2023-02-11T00:37:33.311Z,96.36
2023-02-11T00:38:33.290Z,96.25
2023-02-11T00:39:33.284Z,96.15
2023-02-11T00:40:33.275Z,95.94
2023-02-11T00:41:33.282Z,95.94
2023-02-11T00:42:33.247Z,95.73
2023-02-11T00:43:33.235Z,95.42
2023-02-11T00:44:33.218Z,95.52
2023-02-11T00:45:33.220Z,95.83
2023-02-11T00:46:33.299Z,96.04
2023-02-11T00:47:33.195Z,96.15
2023-02-11T00:48:33.164Z,96.04
2023-02-11T00:49:33.154Z,95.94
2023-02-11T00:50:33.139Z,95.83
2023-02-11T00:51:33.146Z,95.94
2023-02-11T00:52:33.114Z,95.83
2023-02-11T00:53:33.105Z,95.73
2023-02-11T00:54:33.086Z,95.73
2023-02-11T00:55:33.083Z,95.62
2023-02-11T00:56:33.083Z,95.62
2023-02-11T00:57:33.063Z,95.52
2023-02-11T00:58:33.042Z,95.31
2023-02-11T00:59:33.031Z,95.21
2023-02-11T01:00:33.003Z,95.00
2023-02-11T01:01:33.071Z,94.85
2023-02-11T01:02:33.005Z,94.85
2023-02-11T01:03:33.000Z,94.85
2023-02-11T01:04:32.972Z,94.64
2023-02-11T01:05:33.002Z,94.54
2023-02-11T01:06:32.927Z,94.12
2023-02-11T01:07:32.938Z,94.02
2023-02-11T01:08:32.906Z,93.77
2023-02-11T01:09:32.912Z,93.66
2023-02-11T01:10:32.891Z,93.56
2023-02-11T01:11:32.912Z,93.46
2023-02-11T01:12:35.256Z,93.24
2023-02-11T01:13:32.868Z,93.14
2023-02-11T01:14:32.849Z,93.35
2023-02-11T01:15:32.868Z,93.66
2023-02-11T01:16:32.815Z,93.87
2023-02-11T01:17:32.831Z,93.56
2023-02-11T01:18:32.789Z,93.24
2023-02-11T01:19:32.783Z,92.93
2023-02-11T01:20:32.770Z,92.72
2023-02-11T01:21:32.754Z,92.83
2023-02-11T01:22:32.781Z,92.93
2023-02-11T01:23:32.742Z,93.04
2023-02-11T01:24:32.712Z,93.14
2023-02-11T01:25:32.710Z,93.24
2023-02-11T01:26:32.689Z,93.35
2023-02-11T01:27:32.703Z,93.24
2023-02-11T01:28:32.748Z,93.24
2023-02-11T01:29:32.666Z,93.14
2023-02-11T01:30:32.638Z,93.46
2023-02-11T01:31:32.965Z,93.56
2023-02-11T01:32:32.632Z,93.66
2023-02-11T01:33:32.602Z,93.91
2023-02-11T01:34:32.588Z,94.12
2023-02-11T01:35:32.585Z,94.33
2023-02-11T01:36:32.573Z,94.23
2023-02-11T01:37:32.573Z,94.12
2023-02-11T01:38:32.534Z,94.02
2023-02-11T01:39:32.528Z,94.12
2023-02-11T01:40:32.508Z,94.23
2023-02-11T01:41:32.499Z,94.43
2023-02-11T01:42:32.518Z,94.64
2023-02-11T01:43:32.473Z,94.64
2023-02-11T01:44:32.458Z,94.54
2023-02-11T01:45:32.452Z,94.43
2023-02-11T01:46:32.529Z,94.43
2023-02-11T01:47:32.441Z,94.33
2023-02-11T01:48:32.408Z,94.33
2023-02-11T01:49:32.469Z,94.43
2023-02-11T01:50:32.389Z,94.43
2023-02-11T01:51:32.383Z,94.48
2023-02-11T01:52:32.393Z,94.54
2023-02-11T01:53:32.365Z,94.54
2023-02-11T01:54:32.333Z,94.75
2023-02-11T01:55:32.334Z,94.96
2023-02-11T01:56:32.305Z,95.10
2023-02-11T01:57:32.452Z,95.42
2023-02-11T01:58:32.295Z,95.62
2023-02-11T01:59:32.295Z,95.52
2023-02-11T02:00:32.253Z,95.52
2023-02-11T02:01:32.315Z,95.42
2023-02-11T02:02:32.251Z,95.21
2023-02-11T02:03:32.295Z,95.00
2023-02-11T02:04:32.208Z,94.90
2023-02-11T02:05:32.204Z,94.90
2023-02-11T02:06:32.198Z,94.90
2023-02-11T02:07:32.229Z,94.79
2023-02-11T02:08:32.200Z,94.69
2023-02-11T02:09:32.144Z,94.54
2023-02-11T02:10:32.139Z,94.33
2023-02-11T02:11:32.120Z,94.23
2023-02-11T02:12:32.097Z,94.33
2023-02-11T02:13:32.119Z,94.02
2023-02-11T02:14:32.079Z,93.60
2023-02-11T02:15:32.076Z,93.60
2023-02-11T02:16:32.101Z,93.60
2023-02-11T02:17:32.040Z,93.71
2023-02-11T02:18:32.054Z,93.71
2023-02-11T02:19:32.016Z,93.60
2023-02-11T02:20:31.997Z,93.50
2023-02-11T02:21:32.027Z,93.40
2023-02-11T02:22:32.021Z,93.29
2023-02-11T02:23:31.982Z,93.29
2023-02-11T02:24:31.965Z,93.29
2023-02-11T02:25:31.941Z,93.29
2023-02-11T02:26:31.916Z,93.29
2023-02-11T02:27:31.915Z,93.29
2023-02-11T02:28:31.986Z,93.24
2023-02-11T02:29:31.882Z,93.14
2023-02-11T02:30:31.887Z,93.14
2023-02-11T02:31:31.930Z,93.14
2023-02-11T02:32:31.843Z,93.04
2023-02-11T02:33:31.855Z,93.04
2023-02-11T02:34:31.813Z,93.04
2023-02-11T02:35:31.806Z,92.93
2023-02-11T02:36:31.800Z,93.08
2023-02-11T02:37:31.781Z,93.14
2023-02-11T02:38:31.787Z,93.04
2023-02-11T02:39:31.761Z,92.93
2023-02-11T02:40:31.755Z,92.93
2023-02-11T02:41:31.742Z,92.62
2023-02-11T02:42:31.718Z,92.52
2023-02-11T02:43:31.737Z,92.41
2023-02-11T02:44:31.697Z,92.41
2023-02-11T02:45:31.682Z,92.52
2023-02-11T02:46:31.745Z,92.41
2023-02-11T02:47:31.708Z,92.41
2023-02-11T02:48:31.670Z,92.31
2023-02-11T02:49:31.642Z,92.41
2023-02-11T02:50:31.627Z,92.62
2023-02-11T02:51:31.611Z,92.72
2023-02-11T02:52:31.595Z,92.62
2023-02-11T02:53:32.027Z,92.62
2023-02-11T02:54:31.583Z,92.52
2023-02-11T02:55:31.554Z,92.41
2023-02-11T02:56:31.544Z,92.62
2023-02-11T02:57:31.536Z,92.62
2023-02-11T02:58:31.540Z,92.83
2023-02-11T02:59:31.505Z,92.97
2023-02-11T03:00:31.538Z,93.40
2023-02-11T03:01:31.479Z,93.14
2023-02-11T03:02:31.465Z,93.08
2023-02-11T03:03:31.505Z,93.04
2023-02-11T03:04:31.450Z,93.04
2023-02-11T03:05:31.443Z,92.97
2023-02-11T03:06:31.420Z,93.04
2023-02-11T03:07:31.409Z,93.08
2023-02-11T03:08:31.406Z,92.93
2023-02-11T03:09:31.386Z,92.62
2023-02-11T03:10:31.365Z,92.83
2023-02-11T03:11:31.373Z,92.87
2023-02-11T03:12:31.352Z,92.93
2023-02-11T03:13:31.358Z,92.83
2023-02-11T03:14:31.324Z,92.83
2023-02-11T03:15:31.314Z,92.93
2023-02-11T03:16:31.357Z,93.08
2023-02-11T03:17:31.279Z,93.24
2023-02-11T03:18:31.285Z,93.40
2023-02-11T03:19:31.291Z,93.50
2023-02-11T03:20:31.257Z,93.40
2023-02-11T03:21:31.227Z,93.24
2023-02-11T03:22:31.218Z,93.14
2023-02-11T03:23:31.212Z,93.04
2023-02-11T03:24:31.213Z,92.83
2023-02-11T03:25:31.188Z,92.52
2023-02-11T03:26:31.171Z,92.72
2023-02-11T03:27:31.151Z,92.83
2023-02-11T03:28:31.200Z,92.93
2023-02-11T03:29:31.151Z,92.72
2023-02-11T03:30:31.112Z,92.72
2023-02-11T03:31:31.244Z,92.72
2023-02-11T03:32:31.087Z,92.62
2023-02-11T03:33:31.097Z,92.52
2023-02-11T03:34:31.072Z,92.41
2023-02-11T03:35:31.052Z,92.31
2023-02-11T03:36:31.030Z,92.21
2023-02-11T03:37:31.035Z,92.00
2023-02-11T03:38:31.033Z,91.89
2023-02-11T03:39:31.000Z,91.89
2023-02-11T03:40:31.032Z,91.78
2023-02-11T03:41:30.985Z,92.00
2023-02-11T03:42:30.964Z,92.10
2023-02-11T03:43:30.985Z,92.00
2023-02-11T03:44:30.954Z,91.89
2023-02-11T03:45:30.981Z,91.89
2023-02-11T03:46:30.907Z,91.78
2023-02-11T03:47:30.920Z,92.00
2023-02-11T03:48:30.882Z,92.00
2023-02-11T03:49:30.886Z,92.00
2023-02-11T03:50:30.871Z,92.00
2023-02-11T03:51:30.856Z,92.00
2023-02-11T03:52:30.827Z,91.89
2023-02-11T03:53:30.817Z,92.00
2023-02-11T03:54:30.875Z,92.00
2023-02-11T03:55:30.792Z,92.00
2023-02-11T03:56:30.788Z,92.00
2023-02-11T03:57:30.784Z,92.10
2023-02-11T03:58:30.766Z,92.31
2023-02-11T03:59:30.767Z,92.21
2023-02-11T04:00:30.734Z,92.21
2023-02-11T04:01:30.843Z,92.31
2023-02-11T04:02:30.709Z,92.31
2023-02-11T04:03:30.741Z,92.31
2023-02-11T04:04:30.700Z,92.56
2023-02-11T04:05:30.668Z,92.41
2023-02-11T04:06:30.664Z,92.52
2023-02-11T04:07:30.642Z,92.41
2023-02-11T04:08:30.630Z,92.31
2023-02-11T04:09:30.639Z,92.41
2023-02-11T04:10:30.613Z,92.41
2023-02-11T04:11:30.590Z,92.41
2023-02-11T04:12:30.586Z,92.52
2023-02-11T04:13:30.591Z,92.41
2023-02-11T04:14:30.576Z,92.31
2023-02-11T04:15:30.567Z,92.21
2023-02-11T04:16:30.573Z,92.21
2023-02-11T04:17:30.521Z,92.00
2023-02-11T04:18:30.538Z,92.00
2023-02-11T04:19:30.484Z,92.10
2023-02-11T04:20:30.500Z,92.00
2023-02-11T04:21:30.484Z,92.00
2023-02-11T04:22:30.465Z,92.00
2023-02-11T04:23:30.442Z,92.00
2023-02-11T04:24:30.432Z,92.10
2023-02-11T04:25:30.482Z,92.21
2023-02-11T04:26:30.406Z,92.21
2023-02-11T04:27:30.392Z,92.31
2023-02-11T04:28:30.444Z,92.31
2023-02-11T04:29:30.368Z,92.31
2023-02-11T04:30:30.383Z,92.31
2023-02-11T04:31:30.348Z,92.10
2023-02-11T04:32:30.327Z,92.10
2023-02-11T04:33:30.318Z,92.21
2023-02-11T04:34:30.302Z,91.89
2023-02-11T04:35:30.305Z,91.68
2023-02-11T04:36:30.288Z,91.27
2023-02-11T04:37:30.257Z,91.33
2023-02-11T04:38:30.261Z,91.12
2023-02-11T04:39:30.259Z,91.22
2023-02-11T04:40:30.244Z,91.22
2023-02-11T04:41:30.209Z,91.12
2023-02-11T04:42:30.210Z,91.12
2023-02-11T04:43:30.196Z,91.12
2023-02-11T04:44:30.208Z,91.22
2023-02-11T04:45:30.177Z,91.27
2023-02-11T04:46:30.285Z,91.37
2023-02-11T04:47:30.148Z,91.27
2023-02-11T04:48:30.131Z,91.27
2023-02-11T04:49:30.135Z,91.16
2023-02-11T04:50:30.136Z,91.16
2023-02-11T04:51:30.091Z,90.81
2023-02-11T04:52:30.112Z,91.02
2023-02-11T04:53:30.068Z,90.91
2023-02-11T04:54:30.061Z,90.70
2023-02-11T04:55:30.069Z,91.12
2023-02-11T04:56:30.022Z,91.06
2023-02-11T04:57:30.020Z,91.06
2023-02-11T04:58:30.004Z,90.75
2023-02-11T04:59:29.980Z,90.70
2023-02-11T05:00:30.011Z,90.85
2023-02-11T05:01:30.000Z,90.70
2023-02-11T05:02:29.951Z,90.50
2023-02-11T05:03:29.928Z,90.29
2023-02-11T05:04:29.938Z,90.29
2023-02-11T05:05:29.916Z,90.60
2023-02-11T05:06:29.892Z,90.39
2023-02-11T05:07:29.880Z,90.50
2023-02-11T05:08:29.879Z,90.70
2023-02-11T05:09:29.851Z,90.54
2023-02-11T05:10:29.870Z,90.44
2023-02-11T05:11:29.857Z,90.44
2023-02-11T05:12:29.817Z,90.44
2023-02-11T05:13:29.806Z,90.54
2023-02-11T05:14:29.791Z,90.75
2023-02-11T05:15:29.806Z,90.95
2023-02-11T05:16:29.819Z,90.95
2023-02-11T05:17:29.759Z,91.06
2023-02-11T05:18:29.742Z,91.16
2023-02-11T05:19:29.729Z,91.27
2023-02-11T05:20:29.743Z,91.16
2023-02-11T05:21:29.699Z,90.95
2023-02-11T05:22:29.692Z,90.75
2023-02-11T05:23:29.678Z,90.44
2023-02-11T05:24:29.671Z,90.19
2023-02-11T05:25:29.666Z,89.98
2023-02-11T05:26:29.659Z,89.87
2023-02-11T05:27:29.630Z,89.66
2023-02-11T05:28:29.675Z,89.66
2023-02-11T05:29:29.597Z,89.45
2023-02-11T05:30:29.635Z,89.10
2023-02-11T05:31:29.573Z,89.00
2023-02-11T05:32:29.570Z,89.00
2023-02-11T05:33:29.552Z,89.00
2023-02-11T05:34:29.557Z,88.89
2023-02-11T05:35:29.557Z,89.00
2023-02-11T05:36:31.684Z,89.04
2023-02-11T05:37:29.540Z,89.45
2023-02-11T05:38:29.488Z,89.76
2023-02-11T05:39:29.472Z,90.19
2023-02-11T05:40:29.485Z,90.29
2023-02-11T05:41:29.455Z,90.19
2023-02-11T05:42:29.438Z,90.19
2023-02-11T05:43:29.420Z,90.08
2023-02-11T05:44:29.412Z,90.08
2023-02-11T05:45:29.414Z,90.29
2023-02-11T05:46:29.467Z,90.19
2023-02-11T05:47:29.380Z,89.87
2023-02-11T05:48:29.372Z,90.08
2023-02-11T05:49:29.340Z,90.29
2023-02-11T05:50:29.359Z,90.19
2023-02-11T05:51:29.330Z,89.98
2023-02-11T05:52:29.315Z,89.98
2023-02-11T05:53:29.304Z,89.98
2023-02-11T05:54:29.287Z,89.98
2023-02-11T05:55:29.300Z,89.98
2023-02-11T05:56:29.282Z,90.08
2023-02-11T05:57:29.250Z,90.29
2023-02-11T05:58:29.237Z,90.08
2023-02-11T05:59:29.231Z,90.08
2023-02-11T06:00:29.231Z,90.19
2023-02-11T06:01:29.196Z,90.19
2023-02-11T06:02:29.229Z,90.19
2023-02-11T06:03:29.259Z,90.08
2023-02-11T06:04:29.163Z,90.08
2023-02-11T06:05:29.156Z,90.08
2023-02-11T06:06:29.157Z,89.98
2023-02-11T06:07:29.127Z,89.76
2023-02-11T06:08:29.112Z,89.87
2023-02-11T06:09:29.094Z,89.98
2023-02-11T06:10:29.083Z,89.76
2023-02-11T06:11:29.112Z,89.76
2023-02-11T06:12:29.062Z,89.76
2023-02-11T06:13:29.044Z,89.73
2023-02-11T06:14:29.040Z,89.76
2023-02-11T06:15:29.030Z,89.76
2023-02-11T06:16:29.104Z,89.87
2023-02-11T06:17:28.986Z,89.87
2023-02-11T06:18:28.984Z,89.87
2023-02-11T06:19:28.979Z,89.98
2023-02-11T06:20:28.954Z,89.87
2023-02-11T06:21:42.752Z,89.98
2023-02-11T06:22:28.907Z,89.87
2023-02-11T06:23:30.405Z,90.08
2023-02-11T06:24:54.651Z,89.98
2023-02-11T06:25:28.856Z,89.87
2023-02-11T06:26:28.830Z,89.66
2023-02-11T06:27:28.809Z,89.66
2023-02-11T06:28:28.850Z,89.76
2023-02-11T06:29:28.786Z,89.73
2023-02-11T06:30:28.799Z,89.66
2023-02-11T06:31:28.829Z,89.87
2023-02-11T06:32:43.865Z,89.98
2023-02-11T06:33:28.737Z,90.08
2023-02-11T06:34:28.744Z,90.19
2023-02-11T06:35:28.696Z,90.29
2023-02-11T06:36:28.706Z,90.19
2023-02-11T06:37:28.703Z,90.29
2023-02-11T06:38:28.675Z,90.29
2023-02-11T06:39:28.656Z,90.19
2023-02-11T06:40:28.665Z,90.29
2023-02-11T06:41:28.629Z,89.98
2023-02-11T06:42:28.652Z,89.76
2023-02-11T06:43:28.617Z,89.76
2023-02-11T06:44:28.604Z,89.87
2023-02-11T06:45:28.598Z,89.83
2023-02-11T06:46:28.577Z,89.87
2023-02-11T06:47:28.575Z,89.83
2023-02-11T06:48:28.549Z,89.73
2023-02-11T06:49:28.537Z,89.52
2023-02-11T06:50:28.528Z,89.35
2023-02-11T06:51:28.520Z,89.41
2023-02-11T06:52:28.516Z,89.41
2023-02-11T06:53:28.486Z,89.20
2023-02-11T06:54:28.472Z,89.10
2023-02-11T06:55:28.490Z,89.10
2023-02-11T06:56:28.467Z,89.20
2023-02-11T06:57:28.448Z,89.31
2023-02-11T06:58:28.429Z,89.10
2023-02-11T06:59:28.409Z,88.89
2023-02-11T07:00:28.394Z,89.10
2023-02-11T07:01:28.413Z,88.79
2023-02-11T07:02:28.438Z,88.79
2023-02-11T07:03:28.349Z,88.89
2023-02-11T07:04:28.346Z,88.85
2023-02-11T07:05:28.334Z,88.89
2023-02-11T07:06:28.354Z,88.68
2023-02-11T07:07:28.333Z,88.58
2023-02-11T07:08:28.297Z,88.58
2023-02-11T07:09:28.276Z,88.68
2023-02-11T07:10:28.279Z,89.10
2023-02-11T07:11:28.266Z,89.20
2023-02-11T07:12:28.265Z,89.20
2023-02-11T07:13:28.241Z,89.10
2023-02-11T07:14:28.237Z,89.31
2023-02-11T07:15:28.331Z,89.10
2023-02-11T07:16:28.261Z,88.89
2023-02-11T07:17:28.211Z,88.75
2023-02-11T07:18:28.163Z,88.64
2023-02-11T07:19:28.170Z,88.54
2023-02-11T07:20:28.151Z,88.43
2023-02-11T07:21:28.131Z,88.64
2023-02-11T07:22:28.140Z,88.75
2023-02-11T07:23:28.104Z,88.75
2023-02-11T07:24:28.094Z,88.75
2023-02-11T07:25:28.075Z,88.85
2023-02-11T07:26:28.096Z,88.64
2023-02-11T07:27:28.057Z,88.75
2023-02-11T07:28:28.063Z,88.43
2023-02-11T07:29:28.021Z,88.43
2023-02-11T07:30:28.017Z,88.43
2023-02-11T07:31:28.131Z,88.23
2023-02-11T07:32:28.021Z,88.43
2023-02-11T07:33:27.973Z,88.29
2023-02-11T07:34:28.002Z,88.09
2023-02-11T07:35:27.950Z,88.09
2023-02-11T07:36:27.952Z,88.23
2023-02-11T07:37:27.938Z,88.54
2023-02-11T07:38:27.921Z,88.12
2023-02-11T07:39:27.901Z,87.92
2023-02-11T07:40:28.073Z,88.23
2023-02-11T07:41:27.905Z,87.98
2023-02-11T07:42:27.893Z,87.88
2023-02-11T07:43:27.862Z,87.77
2023-02-11T07:44:27.838Z,87.98
2023-02-11T07:45:27.826Z,87.98
2023-02-11T07:46:27.907Z,87.66
2023-02-11T07:47:27.825Z,88.09
2023-02-11T07:48:27.789Z,87.77
2023-02-11T07:49:27.776Z,87.66
2023-02-11T07:50:27.810Z,87.77
2023-02-11T07:51:27.837Z,88.19
2023-02-11T07:52:27.774Z,88.02
2023-02-11T07:53:27.723Z,87.98
2023-02-11T07:54:27.717Z,88.12
2023-02-11T07:55:27.697Z,88.43
2023-02-11T07:56:27.689Z,88.43
2023-02-11T07:57:27.697Z,88.33
2023-02-11T07:58:27.658Z,88.48
2023-02-11T07:59:27.657Z,88.89
2023-02-11T08:00:27.728Z,89.27
2023-02-11T08:01:27.619Z,88.96
2023-02-11T08:02:27.718Z,89.10
2023-02-11T08:03:27.600Z,88.89
2023-02-11T08:04:27.588Z,89.00
2023-02-11T08:05:27.569Z,88.75
2023-02-11T08:06:27.576Z,88.96
2023-02-11T08:07:27.569Z,88.75
2023-02-11T08:08:27.540Z,88.33
2023-02-11T08:09:27.518Z,88.43
2023-02-11T08:10:27.506Z,88.23
2023-02-11T08:11:27.494Z,88.19
2023-02-11T08:12:27.502Z,88.40
2023-02-11T08:13:27.471Z,88.19
2023-02-11T08:14:27.467Z,87.88
2023-02-11T08:15:27.448Z,87.56
2023-02-11T08:16:27.448Z,87.04
2023-02-11T08:17:27.454Z,87.32
2023-02-11T08:18:27.401Z,87.25
2023-02-11T08:19:27.423Z,87.46
2023-02-11T08:20:27.381Z,87.73
2023-02-11T08:21:27.384Z,87.52
2023-02-11T08:22:27.378Z,87.11
2023-02-11T08:23:27.376Z,87.11
2023-02-11T08:24:27.322Z,87.21
2023-02-11T08:25:27.322Z,87.01
2023-02-11T08:26:27.305Z,86.80
2023-02-11T08:27:27.295Z,86.90
2023-02-11T08:28:27.323Z,86.69
2023-02-11T08:29:27.284Z,87.11
2023-02-11T08:30:27.670Z,87.32
2023-02-11T08:31:27.434Z,87.32
2023-02-11T08:32:27.235Z,87.32
2023-02-11T08:33:27.218Z,87.17
2023-02-11T08:34:27.195Z,86.86
2023-02-11T08:35:27.192Z,86.96
2023-02-11T08:36:27.177Z,86.96
2023-02-11T08:37:27.187Z,86.76
2023-02-11T08:38:27.156Z,86.44
2023-02-11T08:39:27.139Z,86.55
2023-02-11T08:40:27.128Z,86.86
2023-02-11T08:41:27.138Z,87.07
2023-02-11T08:42:27.119Z,87.07
2023-02-11T08:43:27.105Z,87.17
2023-02-11T08:44:27.067Z,87.38
2023-02-11T08:45:27.084Z,87.69
2023-02-11T08:46:27.198Z,87.48
2023-02-11T08:47:27.034Z,87.17
2023-02-11T08:48:27.039Z,86.93
2023-02-11T08:49:27.014Z,87.03
2023-02-11T08:50:27.001Z,87.48
2023-02-11T08:51:26.982Z,87.79
2023-02-11T08:52:26.976Z,87.38
2023-02-11T08:53:26.972Z,87.27
2023-02-11T08:54:26.943Z,87.27
2023-02-11T08:55:26.962Z,87.38
2023-02-11T08:56:26.916Z,87.69
2023-02-11T08:57:26.908Z,87.27
2023-02-11T08:58:26.918Z,87.07
2023-02-11T08:59:26.888Z,86.96
2023-02-11T09:00:26.866Z,87.03
2023-02-11T09:01:26.906Z,86.72
2023-02-11T09:02:26.862Z,86.61
2023-02-11T09:03:26.858Z,86.82
2023-02-11T09:04:26.814Z,86.72
2023-02-11T09:05:26.803Z,86.61
2023-02-11T09:06:26.792Z,86.51
2023-02-11T09:07:26.780Z,86.82
2023-02-11T09:08:26.788Z,86.72
2023-02-11T09:09:26.774Z,86.72
2023-02-11T09:10:26.734Z,85.99
2023-02-11T09:11:26.735Z,86.30
2023-02-11T09:12:26.718Z,86.30
2023-02-11T09:13:26.741Z,86.61
2023-02-11T09:14:26.689Z,86.51
2023-02-11T09:15:26.686Z,86.99
2023-02-11T09:16:26.708Z,86.16
2023-02-11T09:17:26.658Z,86.16
2023-02-11T09:18:26.659Z,85.60
2023-02-11T09:19:26.625Z,85.85
2023-02-11T09:20:26.613Z,85.85
2023-02-11T09:21:26.608Z,85.95
2023-02-11T09:22:26.599Z,86.02
2023-02-11T09:23:26.593Z,85.53
2023-02-11T09:24:26.597Z,85.50
2023-02-11T09:25:26.546Z,85.64
2023-02-11T09:26:32.557Z,85.81
2023-02-11T09:27:26.529Z,86.02
2023-02-11T09:28:26.565Z,86.02
2023-02-11T09:29:26.578Z,85.39
2023-02-11T09:30:26.644Z,85.71
2023-02-11T09:31:26.665Z,85.19
2023-02-11T09:32:26.455Z,85.35
2023-02-11T09:33:26.478Z,85.35
2023-02-11T09:34:26.448Z,84.94
2023-02-11T09:35:26.424Z,84.83
2023-02-11T09:36:26.409Z,84.31
2023-02-11T09:37:26.406Z,84.28
2023-02-11T09:38:26.385Z,83.76
2023-02-11T09:39:26.400Z,83.65
2023-02-11T09:40:26.362Z,83.45
2023-02-11T09:41:26.350Z,83.76
2023-02-11T09:42:26.351Z,83.55
2023-02-11T09:43:26.327Z,83.86
2023-02-11T09:45:36.474Z,83.51
2023-02-11T09:46:37.434Z,83.31
2023-02-11T09:47:37.419Z,83.65
2023-02-11T09:48:37.425Z,84.28
2023-02-11T09:49:37.389Z,84.07
2023-02-11T09:50:37.379Z,84.03
2023-02-11T09:51:37.361Z,83.83
2023-02-11T09:52:37.354Z,84.51
2023-02-11T09:53:37.362Z,83.68
2023-02-11T09:54:37.351Z,83.41
2023-02-11T09:55:37.311Z,83.72
2023-02-11T09:56:37.305Z,84.09
2023-02-11T09:57:37.293Z,84.20
2023-02-11T09:58:37.294Z,83.78
2023-02-11T09:59:37.284Z,84.30
2023-02-11T10:00:37.262Z,82.86
2023-02-11T10:01:37.276Z,82.86
2023-02-11T10:02:37.245Z,83.62
2023-02-11T10:03:37.238Z,84.23
2023-02-11T10:04:37.279Z,84.34
2023-02-11T10:05:37.186Z,84.55
2023-02-11T10:06:37.195Z,84.96
2023-02-11T10:07:37.188Z,84.86
2023-02-11T10:08:37.177Z,84.69
2023-02-11T10:09:37.138Z,84.80
2023-02-11T10:10:37.129Z,84.80
2023-02-11T10:11:37.124Z,85.00
2023-02-11T10:12:37.176Z,84.80
2023-02-11T10:13:37.125Z,84.59
2023-02-11T10:14:37.080Z,85.00
2023-02-11T10:15:37.119Z,85.42
2023-02-11T10:16:37.052Z,85.11
2023-02-11T10:17:37.047Z,85.31
2023-02-11T10:18:37.043Z,85.46
2023-02-11T10:19:37.022Z,85.87
2023-02-11T10:20:37.023Z,85.97
2023-02-11T10:21:36.982Z,86.08
2023-02-11T10:22:36.975Z,85.97
2023-02-11T10:23:36.958Z,85.97
2023-02-11T10:24:36.951Z,86.35
2023-02-11T10:25:36.975Z,85.83
2023-02-11T10:26:36.925Z,85.79
2023-02-11T10:27:36.907Z,84.41
2023-02-11T10:28:37.004Z,84.20
2023-02-11T10:29:36.882Z,83.85
2023-02-11T10:30:36.943Z,83.12
2023-02-11T10:31:37.032Z,83.75
2023-02-11T10:32:36.850Z,83.64
2023-02-11T10:33:36.871Z,83.23
2023-02-11T10:34:36.826Z,83.02
2023-02-11T10:35:36.836Z,83.54
2023-02-11T10:36:36.794Z,83.29
2023-02-11T10:37:36.778Z,82.57
2023-02-11T10:38:36.767Z,82.22
2023-02-11T10:39:36.752Z,82.15
2023-02-11T10:40:36.761Z,82.36
2023-02-11T10:41:36.735Z,82.46
2023-02-11T10:42:36.719Z,82.67
2023-02-11T10:43:36.724Z,82.71
2023-02-11T10:44:36.690Z,83.12
2023-02-11T10:45:36.695Z,83.09
2023-02-11T10:46:36.725Z,82.78
2023-02-11T10:47:36.650Z,82.43
2023-02-11T10:48:36.640Z,82.22
2023-02-11T10:49:36.621Z,82.05
2023-02-11T10:50:36.633Z,82.88
2023-02-11T10:51:36.597Z,83.40
2023-02-11T10:52:36.594Z,82.95
2023-02-11T10:53:36.571Z,82.32
2023-02-11T10:54:36.567Z,81.70
2023-02-11T10:55:36.589Z,82.84
2023-02-11T10:56:36.557Z,82.08
2023-02-11T10:57:36.522Z,81.87
2023-02-11T10:58:36.516Z,81.67
2023-02-11T10:59:36.498Z,81.70
2023-02-11T11:00:36.485Z,82.67
2023-02-11T11:01:36.500Z,82.78
2023-02-11T11:02:36.461Z,82.64
2023-02-11T11:03:36.461Z,82.74
2023-02-11T11:04:36.500Z,82.74
2023-02-11T11:05:36.419Z,83.36
2023-02-11T11:06:36.425Z,82.50
2023-02-11T11:07:36.390Z,81.87
2023-02-11T11:08:36.382Z,82.29
2023-02-11T11:09:36.390Z,81.98
2023-02-11T11:10:36.357Z,82.74
2023-02-11T11:11:36.342Z,83.84
2023-02-11T11:12:36.334Z,83.84
2023-02-11T11:13:36.317Z,82.80
2023-02-11T11:14:36.332Z,82.97
2023-02-11T11:15:36.305Z,82.39
2023-02-11T11:16:36.293Z,83.87
2023-02-11T11:17:36.273Z,84.29
2023-02-11T11:18:36.259Z,84.19
2023-02-11T11:19:36.259Z,84.36
2023-02-11T11:20:36.260Z,83.94
2023-02-11T11:21:36.209Z,83.53
2023-02-11T11:22:36.206Z,83.32
2023-02-11T11:23:36.196Z,83.22
2023-02-11T11:24:36.217Z,83.22
2023-02-11T11:25:36.169Z,84.33
2023-02-11T11:26:36.177Z,84.81
2023-02-11T11:27:36.136Z,84.56
2023-02-11T11:28:36.180Z,83.98
2023-02-11T11:29:36.133Z,83.56
2023-02-11T11:30:36.161Z,83.77
2023-02-11T11:31:36.268Z,83.67
2023-02-11T11:32:36.079Z,83.46
2023-02-11T11:33:36.056Z,83.84
2023-02-11T11:34:36.066Z,83.01
2023-02-11T11:35:36.033Z,82.97
2023-02-11T11:36:36.054Z,83.07
2023-02-11T11:37:36.021Z,82.62
2023-02-11T11:38:36.017Z,82.73
2023-02-11T11:39:36.012Z,82.48
2023-02-11T11:40:35.972Z,82.38
2023-02-11T11:41:35.982Z,82.73
2023-02-11T11:42:35.945Z,84.45
2023-02-11T11:43:35.924Z,85.18
2023-02-11T11:44:35.920Z,86.15
2023-02-11T11:45:35.900Z,86.36
2023-02-11T11:46:35.995Z,87.04
2023-02-11T11:47:35.872Z,86.49
2023-02-11T11:48:35.864Z,85.66
2023-02-11T11:49:35.875Z,85.35
2023-02-11T11:50:35.840Z,84.94
2023-02-11T11:51:35.821Z,85.00
2023-02-11T11:52:35.808Z,84.73
2023-02-11T11:53:35.806Z,85.21
2023-02-11T11:54:35.802Z,85.45
2023-02-11T11:55:35.786Z,85.93
2023-02-11T11:56:35.759Z,85.21
2023-02-11T11:57:35.743Z,85.31
2023-02-11T11:58:35.747Z,85.17
2023-02-11T11:59:35.776Z,85.14
2023-02-11T12:00:35.713Z,85.83
2023-02-11T12:01:35.739Z,85.35
2023-02-11T12:02:35.685Z,86.07
2023-02-11T12:03:35.670Z,86.42
2023-02-11T12:04:35.675Z,86.73
2023-02-11T12:05:35.637Z,87.04
2023-02-11T12:06:35.642Z,87.04
2023-02-11T12:07:35.637Z,86.90
2023-02-11T12:08:35.638Z,86.96
2023-02-11T12:09:35.604Z,86.55
2023-02-11T12:10:35.582Z,85.78
2023-02-11T12:11:35.570Z,86.13
2023-02-11T12:12:35.570Z,85.93
2023-02-11T12:13:35.537Z,85.68
2023-02-11T12:14:35.528Z,85.06
2023-02-11T12:15:35.544Z,85.06
2023-02-11T12:16:35.562Z,84.96
2023-02-11T12:17:35.494Z,84.75
2023-02-11T12:18:35.477Z,84.69
2023-02-11T12:19:35.463Z,85.86
2023-02-11T12:20:35.469Z,86.13
2023-02-11T12:21:35.433Z,85.62
2023-02-11T12:22:35.427Z,85.93
2023-02-11T12:23:35.408Z,86.03
2023-02-11T12:24:35.417Z,85.41
2023-02-11T12:25:35.409Z,85.62
2023-02-11T12:26:35.388Z,85.86
2023-02-11T12:27:35.372Z,86.38
2023-02-11T12:28:35.424Z,86.59
2023-02-11T12:29:35.339Z,86.73
2023-02-11T12:30:35.356Z,86.94
2023-02-11T12:31:35.430Z,87.25
2023-02-11T12:32:35.315Z,87.52
2023-02-11T12:33:35.281Z,86.94
2023-02-11T12:34:35.273Z,87.15
2023-02-11T12:35:35.257Z,87.15
2023-02-11T12:36:35.257Z,87.25
2023-02-11T12:37:35.248Z,86.88
2023-02-11T12:38:35.229Z,87.97
2023-02-11T12:39:35.202Z,87.62
2023-02-11T12:40:35.195Z,86.69
2023-02-11T12:41:35.181Z,86.65
2023-02-11T12:42:35.201Z,86.18
2023-02-11T12:43:35.152Z,86.94
2023-02-11T12:44:35.145Z,88.12
2023-02-11T12:45:35.214Z,88.74
2023-02-11T12:46:35.127Z,89.15
2023-02-11T12:47:35.106Z,89.01
2023-02-11T12:48:35.880Z,88.18
2023-02-11T12:49:35.118Z,87.76
2023-02-11T12:50:35.094Z,88.39
2023-02-11T12:51:35.069Z,88.43
2023-02-11T12:52:35.044Z,88.80
2023-02-11T12:53:35.029Z,88.64